Caroline, Ohio
Current Conditions -  °F | °C
As of 3:52 AM on Wednesday 28 Jan 2015 (Local Time) from KMFD Reporting Station
Clear Clear  
Wind Chill: -1°   Ceiling: Unl
Heat Index:   Visibility: 10mi
Dew Point:   Wind: 6mph
Humidity: 92%   Direction: 320°NW
Pressure: 30.21"   Gusts: NA
Location:  41.0654°N, 82.876°W
Report Text: KMFD 280852Z AUTO 32005KT 10SM CLR M13/M14 A3021 RMK AO2 SLP254 T11281139 51014
Loading
Personal Weather Stations






























Interactive Weather Map New forecast layout! Learn more

10-Day Weather Forecast

Advertisements
Track Severe Weather on mobile